Terminal Aerodrome Forecast
Issued by NWS Wilmington, OH

Current Version | Previous Version | Text Only | Print | Product List | Glossary Off
Versions: 1 2 3 4 5 6 7 8 9 10 11 12 13 14 15 16 17 18 19 20 21 22 23 24

000
FTUS41 KILN 212341
TAFILN
TAF
KILN 212341Z 2200/2224 22004KT P6SM -SHRA OVC060
     FM220400 VRB03KT 5SM BR VCSH OVC040
     FM220600 VRB03KT 2SM BR VCSH OVC015
     FM221100 VRB03KT 1SM BR OVC008
     FM221300 VRB03KT 5SM BR OVC008
     FM221800 20004KT P6SM BKN015=

USA.gov is the U.S. government's official web portal to all federal, state and local government web resources and services.